Time;durP1;ratioP1;P1;durP2;ratioP2;P2;SDS_P1;SDS_P2;PMS_P1;PMS_P2;Temp;Humidity;BMP_temperature;BMP_pressure;BME280_temperature;BME280_humidity;BME280_pressure;Samples;Min_cycle;Max_cycle;Signal;HPM_P1;HPM_P2
2023/01/26 00:00:48;;;;;;;15.20;7.05;;;;;;;-3.04;80.33;100017.22;7344941;19;20196;-77
2023/01/26 00:03:13;;;;;;;15.75;8.95;;;;;;;-3.14;80.74;100002.53;7346979;19;20625;-77
2023/01/26 00:05:38;;;;;;;19.38;11.02;;;;;;;-3.14;80.81;100007.75;7344222;19;20394;-76
2023/01/26 00:08:04;;;;;;;17.05;8.05;;;;;;;-3.00;80.90;99998.03;7340654;19;20010;-68
2023/01/26 00:10:28;;;;;;;15.55;8.48;;;;;;;-3.01;80.68;100000.66;7345866;19;20022;-69
2023/01/26 00:12:53;;;;;;;19.08;9.18;;;;;;;-2.99;80.63;100004.13;7342967;19;20011;-67
2023/01/26 00:15:17;;;;;;;19.17;8.23;;;;;;;-2.95;80.64;99998.00;7341137;19;20003;-70
2023/01/26 00:17:43;;;;;;;20.10;8.88;;;;;;;-2.91;80.70;99997.06;7342342;19;20043;-69
2023/01/26 00:20:09;;;;;;;15.55;7.78;;;;;;;-2.93;80.60;99996.22;7343766;19;20006;-72
2023/01/26 00:22:33;;;;;;;16.48;8.82;;;;;;;-3.03;80.68;99990.25;7342624;19;20014;-72
2023/01/26 00:24:58;;;;;;;15.95;8.85;;;;;;;-3.00;80.63;99990.22;7343779;19;20025;-71
2023/01/26 00:27:22;;;;;;;21.17;9.63;;;;;;;-2.94;80.73;99994.53;7341670;19;20025;-72
2023/01/26 00:29:47;;;;;;;16.67;8.25;;;;;;;-2.89;80.55;99990.09;7344906;19;20027;-72
2023/01/26 00:32:12;;;;;;;11.18;5.45;;;;;;;-2.78;80.39;99990.84;7342154;19;20486;-72
2023/01/26 00:34:36;;;;;;;16.73;7.57;;;;;;;-2.89;80.40;99987.50;7342919;19;20018;-69
2023/01/26 00:37:01;;;;;;;17.75;9.07;;;;;;;-2.88;80.32;99997.03;7343133;19;20017;-72
2023/01/26 00:39:26;;;;;;;18.52;8.63;;;;;;;-2.87;80.14;99987.47;7341340;19;20019;-73
2023/01/26 00:42:08;;;;;;;15.35;8.40;;;;;;;-3.01;80.29;99978.06;7342591;19;20002;-72
2023/01/26 00:44:33;;;;;;;12.48;6.82;;;;;;;-2.92;80.41;99980.56;7341789;19;20025;-73
2023/01/26 00:46:58;;;;;;;17.55;9.73;;;;;;;-2.99;80.53;99981.53;7341019;19;20014;-73
2023/01/26 00:49:22;;;;;;;17.83;7.38;;;;;;;-2.96;80.33;99988.44;7340968;19;20033;-73
2023/01/26 00:51:47;;;;;;;19.05;9.15;;;;;;;-3.05;80.60;99983.34;7343209;19;20011;-73
2023/01/26 00:54:11;;;;;;;13.38;7.22;;;;;;;-3.05;80.80;99978.97;7341313;19;20007;-72
2023/01/26 00:56:36;;;;;;;16.23;7.65;;;;;;;-3.03;80.80;99992.00;7338462;19;20014;-71
2023/01/26 00:59:01;;;;;;;13.23;7.50;;;;;;;-2.95;80.62;99979.75;7339576;19;20033;-72
2023/01/26 01:01:26;;;;;;;13.95;8.15;;;;;;;-2.99;80.65;99978.91;7342642;19;20037;-73
2023/01/26 01:03:51;;;;;;;15.13;7.63;;;;;;;-2.97;80.60;99981.50;7341719;19;20037;-73
2023/01/26 01:06:15;;;;;;;17.77;7.22;;;;;;;-2.95;80.54;99984.97;7340386;19;20026;-72
2023/01/26 01:08:40;;;;;;;18.42;10.18;;;;;;;-3.05;80.49;99983.34;7342634;19;20678;-72
2023/01/26 01:11:07;;;;;;;16.80;8.57;;;;;;;-3.00;80.61;99977.19;7342692;19;20014;-72
2023/01/26 01:13:31;;;;;;;13.68;7.53;;;;;;;-2.88;80.38;99985.75;7340581;19;20025;-72
2023/01/26 01:15:56;;;;;;;13.63;7.05;;;;;;;-2.83;80.61;99989.19;7347350;19;20066;-72
2023/01/26 01:18:21;;;;;;;18.02;7.00;;;;;;;-2.82;80.15;99981.31;7350188;19;20015;-73
2023/01/26 01:20:45;;;;;;;12.30;7.20;;;;;;;-2.83;80.06;99982.22;7356882;19;20002;-71
2023/01/26 01:23:10;;;;;;;17.83;7.03;;;;;;;-2.86;80.04;99973.56;7362976;19;20043;-72
2023/01/26 01:25:34;;;;;;;12.75;7.13;;;;;;;-2.85;80.08;99964.84;7357176;19;20029;-72
2023/01/26 01:27:59;;;;;;;14.25;8.10;;;;;;;-2.75;80.02;99963.84;7348657;19;20014;-71
2023/01/26 01:30:24;;;;;;;12.65;6.40;;;;;;;-2.71;79.99;99953.34;7347187;19;20002;-71
2023/01/26 01:32:50;;;;;;;13.52;7.28;;;;;;;-2.81;79.83;99959.56;7348227;19;20041;-74
2023/01/26 01:35:15;;;;;;;13.60;7.25;;;;;;;-2.72;79.88;99953.38;7349570;19;20007;-67
2023/01/26 01:37:40;;;;;;;11.95;6.65;;;;;;;-2.64;79.55;99964.56;7349856;19;20018;-71
2023/01/26 01:40:09;;;;;;;14.13;6.65;;;;;;;-2.57;79.45;99961.84;7346077;19;20003;-70
2023/01/26 01:42:34;;;;;;;11.65;6.45;;;;;;;-2.49;79.23;99973.97;7348315;19;20113;-73
2023/01/26 01:45:37;;;;;;;12.90;6.65;;;;;;;-2.46;78.94;99966.06;7347520;19;20015;-70
2023/01/26 01:48:06;;;;;;;17.35;8.32;;;;;;;-2.56;78.74;99960.97;7345596;19;20010;-72
2023/01/26 01:50:37;;;;;;;15.07;7.57;;;;;;;-2.57;78.99;99956.63;7343786;19;20022;-73
2023/01/26 01:53:03;;;;;;;13.13;6.82;;;;;;;-2.60;78.61;99959.31;7345433;19;20006;-72
2023/01/26 01:55:29;;;;;;;11.02;5.97;;;;;;;-2.53;78.90;99967.03;7343928;19;20468;-71
2023/01/26 01:57:59;;;;;;;12.80;7.28;;;;;;;-2.58;78.79;99957.50;7345232;19;20018;-73
2023/01/26 02:00:23;;;;;;;12.55;6.65;;;;;;;-2.51;78.87;99940.03;7343164;19;20018;-71
2023/01/26 02:03:09;;;;;;;12.15;7.03;;;;;;;-2.57;78.66;99946.19;7344630;19;20018;-69
2023/01/26 02:05:48;;;;;;;11.20;6.50;;;;;;;-2.48;78.78;99944.38;7341663;19;20026;-72
2023/01/26 02:08:14;;;;;;;13.82;7.65;;;;;;;-2.53;78.58;99954.00;7344825;19;20450;-72
2023/01/26 02:10:41;;;;;;;14.40;6.40;;;;;;;-2.60;78.63;99958.44;7344555;19;20339;-69
2023/01/26 02:13:06;;;;;;;13.82;6.93;;;;;;;-2.53;78.91;99964.44;7345930;19;20021;-69
2023/01/26 02:15:30;;;;;;;11.30;6.40;;;;;;;-2.54;78.62;99960.09;7346183;19;20023;-72
2023/01/26 02:18:01;;;;;;;14.93;8.38;;;;;;;-2.68;78.76;99961.13;7345141;19;20109;-73
2023/01/26 02:20:31;;;;;;;12.13;6.68;;;;;;;-2.68;78.81;99953.31;7344354;19;20030;-76
2023/01/26 02:23:08;;;;;;;11.38;7.10;;;;;;;-2.75;79.25;99935.16;7349614;19;20011;-74
2023/01/26 02:25:38;;;;;;;14.45;9.07;;;;;;;-2.80;79.28;99932.59;7348529;19;20017;-74
2023/01/26 02:28:04;;;;;;;14.55;7.30;;;;;;;-2.80;79.17;99937.81;7351870;19;20528;-74
2023/01/26 02:30:30;;;;;;;15.75;9.05;;;;;;;-2.86;79.37;99934.41;7347819;19;20500;-74
2023/01/26 02:32:55;;;;;;;14.60;7.40;;;;;;;-2.89;79.57;99929.25;7351337;19;20464;-75
2023/01/26 02:35:20;;;;;;;19.00;8.30;;;;;;;-2.91;79.78;99929.25;7350912;19;20461;-77
2023/01/26 02:37:44;;;;;;;13.88;8.35;;;;;;;-2.93;79.82;99931.88;7349427;19;20013;-76
2023/01/26 02:40:23;;;;;;;18.35;7.45;;;;;;;-2.91;79.90;99931.84;7350569;19;20022;-74
2023/01/26 02:42:48;;;;;;;14.15;7.70;;;;;;;-2.74;79.74;99921.22;7348320;19;20041;-77
2023/01/26 02:45:15;;;;;;;16.02;8.35;;;;;;;-2.81;79.59;99925.63;7349112;19;20007;-72
2023/01/26 02:47:43;;;;;;;20.08;8.98;;;;;;;-2.89;79.68;99918.81;7347901;19;20097;-73
2023/01/26 02:50:09;;;;;;;20.38;9.85;;;;;;;-2.88;79.89;99923.13;7347971;19;20019;-73
2023/01/26 02:52:34;;;;;;;17.08;8.00;;;;;;;-2.83;79.81;99921.34;7346624;19;20033;-75
2023/01/26 02:57:53;;;;;;;10.73;6.55;;;;;;;-2.81;80.00;99910.00;7347702;19;20087;-74
2023/01/26 03:00:22;;;;;;;11.10;6.72;;;;;;;-2.79;79.96;99910.84;7347477;19;20230;-72
2023/01/26 03:02:50;;;;;;;14.30;7.18;;;;;;;-2.70;79.94;99920.28;7345229;19;20021;-74
2023/01/26 03:05:14;;;;;;;13.27;7.32;;;;;;;-2.65;79.88;99908.91;7342751;19;20011;-73
2023/01/26 03:07:39;;;;;;;14.82;8.10;;;;;;;-2.67;79.62;99913.28;7344869;19;20010;-74
2023/01/26 03:10:05;;;;;;;15.15;8.32;;;;;;;-2.66;79.52;99912.41;7345529;19;19999;-73
2023/01/26 03:12:30;;;;;;;14.73;9.15;;;;;;;-2.76;79.67;99902.09;7346564;19;20054;-74
2023/01/26 03:17:37;;;;;;;17.25;10.07;;;;;;;-2.76;79.78;99895.16;7344876;19;20035;-73
2023/01/26 03:28:21;;;;;;;12.23;7.85;;;;;;;-2.59;79.25;99885.31;7344859;19;20045;-71
2023/01/26 03:30:52;;;;;;;17.80;9.45;;;;;;;-2.53;78.88;99888.75;7344907;19;20018;-70
2023/01/26 03:33:18;;;;;;;17.15;8.20;;;;;;;-2.68;79.21;99902.84;7344302;19;20002;-70
2023/01/26 03:35:42;;;;;;;16.73;8.48;;;;;;;-2.71;79.48;99905.53;7344359;19;20457;-72
2023/01/26 03:38:07;;;;;;;19.98;8.75;;;;;;;-2.66;79.26;99896.75;7342373;19;20685;-68
2023/01/26 03:57:01;;;;;;;16.10;9.68;;;;;;;-2.67;78.65;99899.38;7343518;19;20397;-69
2023/01/26 03:59:38;;;;;;;19.45;9.88;;;;;;;-2.79;78.84;99892.56;7344453;19;20014;-69
2023/01/26 04:10:18;;;;;;;15.85;9.15;;;;;;;-2.79;78.84;99908.22;7341787;19;20026;-68
2023/01/26 04:12:43;;;;;;;17.98;8.73;;;;;;;-2.72;78.81;99902.06;7342738;19;20025;-68
2023/01/26 04:23:32;;;;;;;16.70;8.43;;;;;;;-2.66;78.87;99909.78;7340145;19;20013;-68
2023/01/26 04:25:56;;;;;;;14.60;7.30;;;;;;;-2.61;78.72;99907.13;7340439;19;20011;-69
2023/01/26 04:28:21;;;;;;;13.32;7.57;;;;;;;-2.62;78.47;99910.63;7343317;19;20099;-68
2023/01/26 04:30:46;;;;;;;15.05;7.43;;;;;;;-2.62;78.33;99905.41;7341269;19;20014;-68
2023/01/26 04:33:10;;;;;;;16.30;7.90;;;;;;;-2.60;78.49;99901.03;7342392;19;20364;-68
2023/01/26 04:35:35;;;;;;;15.48;8.15;;;;;;;-2.59;78.64;99902.72;7340996;19;20014;-69
2023/01/26 04:38:00;;;;;;;12.18;6.47;;;;;;;-2.53;78.42;99896.56;7343529;19;20017;-68
2023/01/26 04:40:24;;;;;;;14.82;7.85;;;;;;;-2.48;78.26;99902.59;7343162;19;20097;-68
2023/01/26 04:42:51;;;;;;;15.20;7.97;;;;;;;-2.49;77.93;99911.31;7340329;19;20801;-69
2023/01/26 04:45:16;;;;;;;15.13;7.55;;;;;;;-2.54;77.95;99908.75;7341855;19;20487;-68
2023/01/26 04:47:42;;;;;;;14.02;7.63;;;;;;;-2.54;77.74;99900.94;7340245;19;20476;-68
2023/01/26 04:50:07;;;;;;;14.88;7.35;;;;;;;-2.61;77.97;99894.94;7342798;19;20341;-68
2023/01/26 04:52:32;;;;;;;13.20;7.93;;;;;;;-2.63;77.97;99901.94;7340419;19;20014;-68
2023/01/26 04:54:57;;;;;;;13.88;8.93;;;;;;;-2.66;77.92;99898.50;7346877;19;20088;-68
2023/01/26 04:57:23;;;;;;;14.40;8.63;;;;;;;-2.80;78.25;99900.41;7349881;19;20003;-69
2023/01/26 04:59:49;;;;;;;20.00;9.13;;;;;;;-2.70;78.27;99904.63;7348311;19;20010;-69
2023/01/26 05:02:15;;;;;;;14.48;9.00;;;;;;;-2.72;78.02;99904.66;7350411;19;20514;-68
2023/01/26 05:04:40;;;;;;;16.08;8.82;;;;;;;-2.70;78.13;99896.78;7348986;19;20492;-66
2023/01/26 05:07:06;;;;;;;17.40;8.25;;;;;;;-2.66;77.82;99888.91;7348860;19;20014;-69
2023/01/26 05:09:31;;;;;;;17.55;9.23;;;;;;;-2.72;77.77;99902.06;7347439;19;20078;-68
2023/01/26 05:15:30;;;;;;;20.38;8.15;;;;;;;-2.66;77.87;99896.75;7345260;19;20027;-69
2023/01/26 05:18:06;;;;;;;15.15;8.10;;;;;;;-2.66;77.85;99888.91;7348326;19;20011;-69
2023/01/26 05:20:51;;;;;;;13.82;7.10;;;;;;;-2.63;77.61;99898.44;7345574;19;20034;-70
2023/01/26 05:23:20;;;;;;;17.05;11.02;;;;;;;-2.69;77.61;99899.38;7347487;19;20112;-69
2023/01/26 05:26:03;;;;;;;16.20;7.70;;;;;;;-2.62;77.47;99890.59;7344226;19;20021;-70
2023/01/26 05:28:35;;;;;;;14.48;8.57;;;;;;;-2.63;77.57;99895.84;7347077;19;20026;-70
2023/01/26 05:30:59;;;;;;;15.55;8.57;;;;;;;-2.64;77.49;99878.47;7344717;19;20397;-69
2023/01/26 05:33:25;;;;;;;18.45;8.52;;;;;;;-2.72;77.49;99878.56;7346533;19;20010;-70
2023/01/26 05:35:51;;;;;;;16.95;8.57;;;;;;;-2.62;77.67;99884.53;7345278;19;20038;-69
2023/01/26 05:38:17;;;;;;;11.60;6.25;;;;;;;-2.65;77.64;99880.19;7345972;19;20018;-70
2023/01/26 05:40:43;;;;;;;20.52;8.98;;;;;;;-2.70;77.73;99878.53;7344617;19;20505;-70
2023/01/26 05:43:08;;;;;;;19.98;8.10;;;;;;;-2.63;77.76;99878.44;7342890;19;20019;-70
2023/01/26 05:45:51;;;;;;;15.05;8.23;;;;;;;-2.66;77.63;99888.03;7343193;19;20025;-69
2023/01/26 05:48:18;;;;;;;16.42;8.70;;;;;;;-2.54;77.63;99887.00;7345802;19;20033;-69
2023/01/26 05:50:46;;;;;;;15.07;7.88;;;;;;;-2.47;77.38;99888.63;7345863;19;20018;-70
2023/01/26 05:53:19;;;;;;;13.80;7.93;;;;;;;-2.43;77.42;99885.09;7347691;19;20041;-68
2023/01/26 05:55:44;;;;;;;18.00;9.65;;;;;;;-2.47;77.24;99880.81;7348766;19;20011;-70
2023/01/26 05:58:10;;;;;;;15.88;8.73;;;;;;;-2.50;77.19;99888.69;7346748;19;20042;-70
2023/01/26 06:00:40;;;;;;;14.18;7.30;;;;;;;-2.46;77.21;99892.97;7348146;19;20010;-69
2023/01/26 06:03:10;;;;;;;14.23;7.60;;;;;;;-2.44;77.11;99893.81;7346233;19;20011;-69
2023/01/26 06:05:35;;;;;;;11.43;6.85;;;;;;;-2.50;77.22;99888.69;7345520;19;20522;-69
2023/01/26 06:08:06;;;;;;;12.77;7.60;;;;;;;-2.52;77.03;99885.25;7345776;19;20472;-71
2023/01/26 06:10:44;;;;;;;17.75;8.57;;;;;;;-2.58;77.21;99880.97;7347142;19;20437;-69
2023/01/26 06:13:31;;;;;;;12.05;6.40;;;;;;;-2.49;77.26;99885.22;7345594;19;20031;-68
2023/01/26 06:16:08;;;;;;;19.35;9.30;;;;;;;-2.53;77.16;99875.69;7347071;19;20013;-70
2023/01/26 06:18:34;;;;;;;18.38;10.30;;;;;;;-2.55;77.20;99880.94;7345189;19;20033;-69
2023/01/26 06:21:06;;;;;;;13.65;8.02;;;;;;;-2.53;77.17;99871.34;7346363;19;20014;-70
2023/01/26 06:23:33;;;;;;;15.52;9.38;;;;;;;-2.51;77.10;99872.19;7344555;19;20487;-71
2023/01/26 06:26:00;;;;;;;11.50;6.65;;;;;;;-2.41;77.05;99875.50;7345002;19;20018;-69
2023/01/26 06:28:27;;;;;;;17.58;9.77;;;;;;;-2.50;77.01;99873.03;7347542;19;20014;-69
2023/01/26 06:30:52;;;;;;;15.07;9.05;;;;;;;-2.47;76.87;99871.22;7345953;19;20014;-70
2023/01/26 06:33:17;;;;;;;13.82;8.45;;;;;;;-2.40;76.95;99869.41;7346730;19;20465;-68
2023/01/26 06:35:43;;;;;;;16.75;8.57;;;;;;;-2.46;76.87;99869.47;7344969;19;20134;-68
2023/01/26 06:38:09;;;;;;;15.00;8.63;;;;;;;-2.37;76.84;99864.97;7346357;19;20014;-70
2023/01/26 06:40:34;;;;;;;12.82;7.72;;;;;;;-2.35;76.98;99862.34;7344312;19;20015;-70
2023/01/26 06:42:59;;;;;;;16.63;7.75;;;;;;;-2.33;76.81;99853.59;7345144;19;20086;-69
2023/01/26 06:45:24;;;;;;;21.60;10.40;;;;;;;-2.37;76.78;99862.34;7350894;19;20459;-70
2023/01/26 06:47:50;;;;;;;15.20;7.85;;;;;;;-2.29;76.73;99860.50;7351390;19;20011;-69
2023/01/26 06:50:18;;;;;;;16.75;9.68;;;;;;;-2.29;76.71;99862.25;7353606;19;20388;-69
2023/01/26 06:52:50;;;;;;;13.88;8.05;;;;;;;-2.38;76.97;99857.19;7354243;19;20014;-69
2023/01/26 06:55:39;;;;;;;15.77;8.02;;;;;;;-2.37;76.91;99853.69;7347788;19;20018;-69
2023/01/26 06:58:22;;;;;;;13.57;7.75;;;;;;;-2.22;76.82;99872.56;7345657;19;20022;-69
2023/01/26 07:01:19;;;;;;;13.95;8.27;;;;;;;-2.20;76.63;99862.09;7343815;19;20014;-68
2023/01/26 07:03:44;;;;;;;13.50;7.20;;;;;;;-2.14;76.44;99862.00;7346030;19;20463;-68
2023/01/26 07:06:11;;;;;;;15.48;7.78;;;;;;;-2.16;76.25;99861.19;7344107;19;20468;-70
2023/01/26 07:08:39;;;;;;;13.15;6.88;;;;;;;-2.10;76.35;99849.75;7347890;19;20021;-70
2023/01/26 07:11:04;;;;;;;14.93;7.97;;;;;;;-2.10;76.15;99848.00;7346512;19;20010;-70
2023/01/26 07:13:29;;;;;;;15.38;8.70;;;;;;;-2.25;76.22;99856.09;7345032;19;20021;-70
2023/01/26 07:16:14;;;;;;;13.65;7.43;;;;;;;-2.08;76.52;99867.13;7345853;19;20007;-69
2023/01/26 07:18:41;;;;;;;13.85;8.43;;;;;;;-2.20;76.02;99854.28;7343901;19;20011;-70
2023/01/26 07:21:08;;;;;;;14.23;8.93;;;;;;;-2.20;76.23;99855.13;7346455;19;20035;-71
2023/01/26 07:23:32;;;;;;;12.90;7.63;;;;;;;-2.30;76.29;99853.56;7344438;19;20023;-69
2023/01/26 07:25:58;;;;;;;12.43;5.68;;;;;;;-2.14;76.44;99850.72;7345803;19;20048;-69
2023/01/26 07:28:24;;;;;;;15.63;8.88;;;;;;;-2.22;76.62;99848.19;7347178;19;20011;-70
2023/01/26 07:30:49;;;;;;;14.48;7.88;;;;;;;-2.29;76.52;99844.84;7344398;19;20460;-68
2023/01/26 07:33:14;;;;;;;12.13;6.75;;;;;;;-2.24;76.60;99847.34;7345638;19;20007;-68
2023/01/26 07:35:39;;;;;;;13.30;7.25;;;;;;;-2.22;76.53;99853.44;7344960;19;20078;-70
2023/01/26 07:38:04;;;;;;;13.90;8.60;;;;;;;-2.22;76.54;99848.19;7344784;19;20027;-68
2023/01/26 07:40:28;;;;;;;14.68;8.23;;;;;;;-2.19;76.57;99845.56;7348042;19;20065;-69
2023/01/26 07:42:58;;;;;;;12.95;7.90;;;;;;;-2.04;76.71;99847.91;7347469;19;20022;-71
2023/01/26 07:46:00;;;;;;;11.52;6.28;;;;;;;-1.98;76.21;99845.19;7341014;19;20014;-69
2023/01/26 07:48:28;;;;;;;11.38;6.50;;;;;;;-1.96;75.84;99848.63;7343551;19;20062;-73
2023/01/26 07:50:53;;;;;;;7.43;4.90;;;;;;;-1.79;76.08;99837.84;7341653;19;20034;-69
2023/01/26 07:53:18;;;;;;;9.80;4.78;;;;;;;-1.89;76.02;99847.63;7343642;19;20007;-71
2023/01/26 07:55:46;;;;;;;14.10;7.13;;;;;;;-1.94;75.91;99843.38;7345828;19;20035;-68
2023/01/26 07:58:11;;;;;;;11.95;6.38;;;;;;;-1.89;76.02;99838.91;7343659;19;20057;-69
2023/01/26 08:00:36;;;;;;;14.63;7.55;;;;;;;-1.85;75.95;99846.69;7345341;19;20500;-69
2023/01/26 08:03:00;;;;;;;15.18;8.10;;;;;;;-1.84;75.62;99842.31;7342297;19;20014;-70
2023/01/26 08:05:25;;;;;;;13.35;7.25;;;;;;;-1.74;75.55;99854.34;7341438;19;20037;-70
2023/01/26 08:07:55;;;;;;;11.43;6.70;;;;;;;-1.86;75.63;99857.16;7340347;19;20010;-69
2023/01/26 08:10:23;;;;;;;12.13;6.57;;;;;;;-1.81;75.77;99844.91;7341413;19;20373;-70
2023/01/26 08:12:47;;;;;;;13.75;7.30;;;;;;;-1.80;75.66;99840.50;7341818;19;20070;-69
2023/01/26 08:15:12;;;;;;;10.10;6.13;;;;;;;-1.71;75.68;99835.13;7339325;19;20011;-69
2023/01/26 08:17:37;;;;;;;11.32;6.15;;;;;;;-1.74;75.38;99828.19;7341025;19;20017;-68
2023/01/26 08:20:04;;;;;;;10.35;5.57;;;;;;;-1.66;75.50;99823.69;7343569;19;20014;-69
2023/01/26 08:22:29;;;;;;;14.07;6.53;;;;;;;-1.74;75.34;99824.72;7343721;19;20018;-70
2023/01/26 08:24:53;;;;;;;13.43;8.02;;;;;;;-1.66;75.22;99828.03;7344643;19;20012;-69
2023/01/26 08:27:18;;;;;;;11.70;6.38;;;;;;;-1.66;75.36;99823.69;7339718;19;20146;-69
2023/01/26 08:29:43;;;;;;;10.90;6.78;;;;;;;-1.63;75.14;99813.16;7339224;19;20011;-69
2023/01/26 08:32:08;;;;;;;10.55;5.72;;;;;;;-1.56;75.27;99813.91;7340952;19;20014;-70
2023/01/26 08:34:32;;;;;;;8.68;5.35;;;;;;;-1.52;75.20;99807.72;7342285;19;20482;-70
2023/01/26 08:36:57;;;;;;;13.18;7.15;;;;;;;-1.48;74.99;99818.09;7341674;19;20479;-69
2023/01/26 08:39:22;;;;;;;10.40;6.65;;;;;;;-1.46;74.79;99816.28;7340558;19;20011;-69
2023/01/26 08:41:47;;;;;;;12.15;6.03;;;;;;;-1.38;74.89;99813.53;7341437;19;20015;-69
2023/01/26 08:44:11;;;;;;;10.32;5.72;;;;;;;-1.31;74.98;99815.13;7338710;19;20011;-69
2023/01/26 08:46:38;;;;;;;10.32;7.60;;;;;;;-1.39;74.35;99810.97;7339799;19;20006;-68
2023/01/26 08:49:03;;;;;;;12.00;6.45;;;;;;;-1.38;74.56;99797.00;7339495;19;20075;-69
2023/01/26 08:51:27;;;;;;;11.13;6.57;;;;;;;-1.36;74.35;99795.22;7340319;19;20014;-68
2023/01/26 08:53:53;;;;;;;13.48;6.90;;;;;;;-1.24;74.64;99798.41;7341320;19;20100;-68
2023/01/26 08:56:18;;;;;;;12.70;7.07;;;;;;;-1.22;74.31;99804.47;7338766;19;20018;-71
2023/01/26 08:58:42;;;;;;;17.52;6.80;;;;;;;-1.39;74.22;99809.22;7343515;19;20067;-70
2023/01/26 09:01:12;;;;;;;11.77;6.97;;;;;;;-1.38;74.40;99816.16;7340268;19;20105;-71
2023/01/26 09:03:37;;;;;;;12.65;6.35;;;;;;;-1.37;74.73;99802.19;7344469;19;20019;-71
2023/01/26 09:06:03;;;;;;;11.85;6.90;;;;;;;-1.40;74.48;99810.09;7340159;19;20030;-70
2023/01/26 09:08:28;;;;;;;10.40;6.65;;;;;;;-1.29;74.52;99799.41;7342248;19;20034;-71
2023/01/26 09:10:52;;;;;;;10.60;6.43;;;;;;;-1.24;74.57;99805.41;7342660;19;20003;-72
2023/01/26 09:13:17;;;;;;;11.10;6.60;;;;;;;-1.25;74.34;99799.31;7339665;19;20376;-69
2023/01/26 09:15:42;;;;;;;11.63;6.47;;;;;;;-1.24;74.33;99798.41;7341236;19;20743;-69
2023/01/26 09:18:09;;;;;;;11.05;5.97;;;;;;;-1.38;74.38;99781.31;7343506;19;20006;-70
2023/01/26 09:20:36;;;;;;;7.35;4.97;;;;;;;-1.31;74.63;99794.22;7340335;19;20014;-69
2023/01/26 09:23:10;;;;;;;11.23;6.40;;;;;;;-1.22;74.51;99787.91;7341597;19;20647;-68
2023/01/26 09:25:36;;;;;;;9.68;5.95;;;;;;;-1.11;74.45;99792.03;7340587;19;20036;-68
2023/01/26 09:28:01;;;;;;;11.63;7.18;;;;;;;-1.24;73.95;99793.16;7343335;19;20022;-69
2023/01/26 09:30:26;;;;;;;11.27;6.88;;;;;;;-1.27;74.31;99787.16;7339595;19;20059;-69
2023/01/26 09:32:51;;;;;;;12.63;6.07;;;;;;;-1.14;74.50;99794.72;7341926;19;20025;-71
2023/01/26 09:35:15;;;;;;;12.35;6.30;;;;;;;-1.29;74.50;99786.34;7343326;19;20010;-68
2023/01/26 09:37:42;;;;;;;11.30;6.97;;;;;;;-1.07;74.29;99786.72;7344310;19;20015;-71
2023/01/26 09:40:17;;;;;;;8.93;5.60;;;;;;;-1.13;74.44;99785.97;7347670;19;20461;-71
2023/01/26 09:43:19;;;;;;;13.75;6.45;;;;;;;-1.07;74.61;99787.59;7347332;19;20495;-70
2023/01/26 09:45:59;;;;;;;7.07;4.10;;;;;;;-1.07;74.40;99778.88;7346459;19;20006;-70
2023/01/26 09:48:41;;;;;;;15.20;6.80;;;;;;;-1.12;74.42;99778.97;7349666;19;20021;-69
2023/01/26 09:51:38;;;;;;;10.00;6.13;;;;;;;-1.06;74.24;99775.38;7346463;19;20481;-69
2023/01/26 09:54:15;;;;;;;13.13;6.85;;;;;;;-1.12;74.50;99779.84;7343596;19;20038;-69
2023/01/26 09:56:40;;;;;;;13.90;6.90;;;;;;;-1.18;74.60;99779.97;7344866;19;20354;-69
2023/01/26 09:59:13;;;;;;;11.25;6.35;;;;;;;-1.19;74.58;99777.41;7345896;19;20378;-70
2023/01/26 10:01:57;;;;;;;10.85;7.32;;;;;;;-1.17;74.52;99773.84;7344623;19;20025;-70
2023/01/26 10:04:43;;;;;;;13.18;8.00;;;;;;;-1.18;74.77;99779.97;7343933;19;20022;-70
2023/01/26 10:07:14;;;;;;;13.85;6.57;;;;;;;-1.19;74.84;99775.66;7345130;19;20010;-71
2023/01/26 10:09:49;;;;;;;12.02;6.72;;;;;;;-1.14;74.87;99775.56;7351022;19;20026;-70
2023/01/26 10:12:21;;;;;;;12.98;6.07;;;;;;;-1.06;74.63;99781.47;7345601;19;20021;-70
2023/01/26 10:14:52;;;;;;;13.85;6.07;;;;;;;-1.09;74.78;99771.06;7345835;19;20393;-70
2023/01/26 10:17:26;;;;;;;10.00;6.82;;;;;;;-1.08;74.88;99780.63;7344276;19;20014;-70
2023/01/26 10:20:14;;;;;;;15.77;6.93;;;;;;;-1.20;75.21;99776.53;7345342;19;20097;-70
2023/01/26 10:22:45;;;;;;;10.63;6.90;;;;;;;-1.24;75.20;99779.28;7344196;19;20011;-69
2023/01/26 10:25:14;;;;;;;13.52;6.72;;;;;;;-1.10;75.42;99770.19;7347291;19;20106;-69
2023/01/26 10:27:39;;;;;;;12.40;6.15;;;;;;;-1.12;75.35;99778.97;7346094;19;20006;-70
2023/01/26 10:30:04;;;;;;;11.95;6.20;;;;;;;-1.12;75.22;99771.97;7347692;19;20022;-72
2023/01/26 10:32:31;;;;;;;12.15;6.30;;;;;;;-1.01;75.08;99770.88;7346252;19;20019;-70
2023/01/26 10:34:55;;;;;;;14.10;7.50;;;;;;;-1.01;75.04;99761.28;7347364;19;20043;-69
2023/01/26 10:37:25;;;;;;;11.40;6.28;;;;;;;-0.95;75.18;99766.38;7347819;19;20007;-70
2023/01/26 10:39:56;;;;;;;13.57;6.90;;;;;;;-1.03;74.95;99759.63;7348761;19;20018;-71
2023/01/26 10:42:20;;;;;;;13.05;7.38;;;;;;;-1.19;75.24;99761.69;7347006;19;20015;-70
2023/01/26 10:44:45;;;;;;;9.00;5.43;;;;;;;-1.05;75.38;99757.03;7344092;19;20022;-70
2023/01/26 10:47:20;;;;;;;13.63;6.30;;;;;;;-0.92;75.49;99763.72;7347489;19;20007;-69
2023/01/26 10:49:44;;;;;;;16.42;9.45;;;;;;;-1.02;75.20;99758.72;7345827;19;20112;-71
2023/01/26 10:52:26;;;;;;;11.80;6.70;;;;;;;-0.91;75.28;99752.34;7347115;19;20006;-71
2023/01/26 10:55:18;;;;;;;13.63;7.10;;;;;;;-1.14;76.10;99744.16;7346350;19;20011;-70
2023/01/26 10:57:43;;;;;;;12.63;6.55;;;;;;;-1.21;76.54;99739.94;7346577;19;20058;-70
2023/01/26 11:00:28;;;;;;;13.65;6.60;;;;;;;-1.03;76.18;99730.84;7347214;19;20021;-70
2023/01/26 11:02:58;;;;;;;13.35;7.40;;;;;;;-1.22;76.79;99725.16;7344182;19;20042;-69
2023/01/26 11:05:26;;;;;;;10.70;6.70;;;;;;;-1.16;76.96;99728.50;7346133;19;20032;-69
2023/01/26 11:07:57;;;;;;;14.90;7.00;;;;;;;-1.19;77.18;99727.69;7342930;19;20029;-70
2023/01/26 11:10:32;;;;;;;14.52;6.43;;;;;;;-1.11;77.24;99729.22;7346907;19;20010;-72
2023/01/26 11:13:21;;;;;;;12.40;5.85;;;;;;;-1.01;77.15;99727.25;7347861;19;20007;-69
2023/01/26 11:16:10;;;;;;;10.10;5.57;;;;;;;-0.97;76.88;99723.69;7346296;19;20086;-69
2023/01/26 11:18:41;;;;;;;12.77;6.55;;;;;;;-0.87;76.28;99716.47;7344246;19;20094;-70
2023/01/26 11:21:16;;;;;;;13.32;6.63;;;;;;;-0.90;76.14;99706.06;7345820;19;20469;-70
2023/01/26 11:23:55;;;;;;;;;;;;;;;-0.89;75.98;99708.66;7343880;19;20007;-71
2023/01/26 11:26:45;;;;;;;9.93;5.60;;;;;;;-0.88;75.59;99706.91;7344883;19;19914;-70
2023/01/26 11:29:35;;;;;;;12.73;7.53;;;;;;;-1.11;75.87;99705.69;7345530;19;20070;-71
2023/01/26 11:32:05;;;;;;;14.45;8.63;;;;;;;-1.09;75.88;99705.66;7342758;19;20078;-69
2023/01/26 11:34:36;;;;;;;16.27;8.93;;;;;;;-1.23;76.11;99708.59;7343956;19;20478;-71
2023/01/26 11:37:28;;;;;;;11.40;7.10;;;;;;;-1.23;76.46;99703.34;7345756;19;20472;-70
2023/01/26 11:40:47;;;;;;;12.73;7.55;;;;;;;-1.23;76.49;99707.72;7344616;19;20003;-75
2023/01/26 11:43:29;;;;;;;13.38;7.72;;;;;;;-1.13;76.50;99698.81;7338929;19;20011;-69
2023/01/26 11:46:06;;;;;;;14.20;7.85;;;;;;;-1.17;76.26;99707.59;7337392;19;20123;-68
2023/01/26 11:48:56;;;;;;;14.93;8.45;;;;;;;-1.16;76.41;99701.47;7342903;19;20015;-68
2023/01/26 11:51:48;;;;;;;14.23;7.75;;;;;;;-1.22;76.45;99705.06;7341121;19;20389;-69
2023/01/26 11:54:18;;;;;;;19.80;9.85;;;;;;;-1.30;76.64;99701.78;7341767;19;20025;-67
2023/01/26 11:56:58;;;;;;;11.85;7.18;;;;;;;-1.16;76.55;99704.09;7342628;19;20030;-70
2023/01/26 11:59:38;;;;;;;18.15;7.93;;;;;;;-1.14;76.44;99692.72;7341635;19;20026;-70
2023/01/26 12:02:22;;;;;;;15.57;7.97;;;;;;;-1.29;76.82;99687.81;7341734;19;20002;-69
2023/01/26 12:04:47;;;;;;;15.77;7.35;;;;;;;-1.24;76.92;99696.41;7339761;19;20014;-67
2023/01/26 12:07:20;;;;;;;19.13;10.95;;;;;;;-1.21;77.00;99696.34;7340641;19;20010;-70
2023/01/26 12:09:49;;;;;;;15.15;7.80;;;;;;;-1.17;76.90;99698.00;7340849;19;20040;-70
2023/01/26 12:12:13;;;;;;;14.20;8.00;;;;;;;-1.12;76.83;99700.50;7340359;19;20027;-71
2023/01/26 12:14:50;;;;;;;17.30;8.10;;;;;;;-1.04;76.66;99692.47;7343707;19;20011;-69
2023/01/26 12:17:30;;;;;;;14.85;8.35;;;;;;;-1.06;76.58;99679.44;7343433;19;20023;-69
2023/01/26 12:20:29;;;;;;;13.60;8.15;;;;;;;-1.03;76.57;99689.84;7343271;19;20014;-71
2023/01/26 12:23:02;;;;;;;22.65;8.75;;;;;;;-1.14;76.54;99692.72;7342942;19;20042;-70
2023/01/26 12:25:33;;;;;;;14.87;7.37;;;;;;;-1.04;76.70;99690.72;7344470;19;20023;-71